createdAt,value
2019-06-26T00:00:14.990Z,21.33
2019-06-26T00:02:44.612Z,21.25
2019-06-26T00:05:14.261Z,21.27
2019-06-26T00:07:43.711Z,21.21
2019-06-26T00:10:13.350Z,21.29
2019-06-26T00:12:42.792Z,21.20
2019-06-26T00:15:12.823Z,21.13
2019-06-26T00:17:42.260Z,21.12
2019-06-26T00:20:14.852Z,21.12
2019-06-26T00:22:44.420Z,21.01
2019-06-26T00:25:13.916Z,20.96
2019-06-26T00:27:43.356Z,20.89
2019-06-26T00:30:13.104Z,20.87
2019-06-26T00:32:42.559Z,20.82
2019-06-26T00:35:12.022Z,20.78
2019-06-26T00:37:41.466Z,20.71
2019-06-26T00:40:11.305Z,20.70
2019-06-26T00:42:40.759Z,20.66
2019-06-26T00:45:10.405Z,20.63
2019-06-26T00:47:39.834Z,20.75
2019-06-26T00:50:10.354Z,20.75
2019-06-26T00:52:39.790Z,20.71
2019-06-26T00:55:09.440Z,20.81
2019-06-26T00:57:38.956Z,20.77
2019-06-26T01:00:10.188Z,20.74
2019-06-26T01:02:39.659Z,20.70
2019-06-26T01:05:11.165Z,20.65
2019-06-26T01:07:40.687Z,20.64
2019-06-26T01:10:11.954Z,20.59
2019-06-26T01:12:41.458Z,20.58
2019-06-26T01:15:11.587Z,20.57
2019-06-26T01:17:41.029Z,20.57
2019-06-26T01:20:10.804Z,20.51
2019-06-26T01:22:40.254Z,20.53
2019-06-26T01:25:10.135Z,20.47
2019-06-26T01:27:39.629Z,20.41
2019-06-26T01:30:09.985Z,20.35
2019-06-26T01:32:39.393Z,20.26
2019-06-26T01:35:09.089Z,20.21
2019-06-26T01:37:39.990Z,20.13
2019-06-26T01:40:09.974Z,19.98
2019-06-26T01:42:39.532Z,19.89
2019-06-26T01:45:09.527Z,19.79
2019-06-26T01:47:39.004Z,19.89
2019-06-26T01:50:09.493Z,19.79
2019-06-26T01:52:39.096Z,19.72
2019-06-26T01:55:09.418Z,19.72
2019-06-26T01:57:38.804Z,19.68
2019-06-26T02:00:12.055Z,19.65
2019-06-26T02:02:41.524Z,19.54
2019-06-26T02:05:11.035Z,19.49
2019-06-26T02:07:40.436Z,19.49
2019-06-26T02:10:10.642Z,19.53
2019-06-26T02:12:40.087Z,19.49
2019-06-26T02:15:10.674Z,19.47
2019-06-26T02:17:40.191Z,19.43
2019-06-26T02:20:10.215Z,19.43
2019-06-26T02:22:39.661Z,19.40
2019-06-26T02:25:09.352Z,19.35
2019-06-26T02:27:38.865Z,19.29
2019-06-26T02:30:08.670Z,19.26
2019-06-26T02:32:38.163Z,19.30
2019-06-26T02:35:10.394Z,19.24
2019-06-26T02:37:39.065Z,19.24
2019-06-26T02:40:09.236Z,19.19
2019-06-26T02:42:38.710Z,19.14
2019-06-26T02:45:09.326Z,19.12
2019-06-26T02:47:38.726Z,19.10
2019-06-26T02:50:09.224Z,19.06
2019-06-26T02:52:38.700Z,18.95
2019-06-26T02:55:08.786Z,18.90
2019-06-26T02:57:38.196Z,18.87
2019-06-26T03:00:08.064Z,18.85
2019-06-26T03:02:37.511Z,18.81
2019-06-26T03:05:07.959Z,18.78
2019-06-26T03:07:37.424Z,18.72
2019-06-26T03:10:08.370Z,18.69
2019-06-26T03:12:37.869Z,18.65
2019-06-26T03:15:09.498Z,18.64
2019-06-26T03:17:54.215Z,18.68
2019-06-26T03:20:10.293Z,18.60
2019-06-26T03:22:39.776Z,18.57
2019-06-26T03:25:09.571Z,18.52
2019-06-26T03:27:39.186Z,18.46
2019-06-26T03:30:08.853Z,18.51
2019-06-26T03:32:38.293Z,18.49
2019-06-26T03:35:08.644Z,18.47
2019-06-26T03:37:38.095Z,18.44
2019-06-26T03:40:08.848Z,18.44
2019-06-26T03:42:38.489Z,18.36
2019-06-26T03:45:24.171Z,18.40
2019-06-26T03:47:39.575Z,18.45
2019-06-26T03:50:09.350Z,18.48
2019-06-26T03:52:38.799Z,18.51
2019-06-26T03:55:08.442Z,18.54
2019-06-26T03:57:37.881Z,18.66
2019-06-26T04:00:09.433Z,18.61
2019-06-26T04:02:38.945Z,18.77
2019-06-26T04:05:08.788Z,18.73
2019-06-26T04:07:38.216Z,18.73
2019-06-26T04:10:07.908Z,18.81
2019-06-26T04:12:37.351Z,18.85
2019-06-26T04:15:08.401Z,18.83
2019-06-26T04:17:37.897Z,18.97
2019-06-26T04:20:08.287Z,19.01
2019-06-26T04:22:37.719Z,19.20
2019-06-26T04:25:10.045Z,19.13
2019-06-26T04:27:39.485Z,19.19
2019-06-26T04:30:10.569Z,19.30
2019-06-26T04:32:40.048Z,19.34
2019-06-26T04:35:09.932Z,19.57
2019-06-26T04:37:39.400Z,19.72
2019-06-26T04:40:09.179Z,19.77
2019-06-26T04:42:38.624Z,19.75
2019-06-26T04:45:08.391Z,19.84
2019-06-26T04:47:37.837Z,20.00
2019-06-26T04:50:09.493Z,19.90
2019-06-26T04:52:38.927Z,19.87
2019-06-26T04:55:08.697Z,19.75
2019-06-26T04:57:38.577Z,19.73
2019-06-26T05:00:09.040Z,19.85
2019-06-26T05:02:38.512Z,19.95
2019-06-26T05:05:08.573Z,20.17
2019-06-26T05:07:37.976Z,20.00
2019-06-26T05:10:08.818Z,20.08
2019-06-26T05:12:38.245Z,20.24
2019-06-26T05:15:08.519Z,20.31
2019-06-26T05:17:38.053Z,20.48
2019-06-26T05:20:08.468Z,20.67
2019-06-26T05:22:37.945Z,20.66
2019-06-26T05:25:08.599Z,20.94
2019-06-26T05:27:38.098Z,21.27
2019-06-26T05:30:10.272Z,21.57
2019-06-26T05:32:39.679Z,21.38
2019-06-26T05:35:09.756Z,21.24
2019-06-26T05:37:39.162Z,21.82
2019-06-26T05:40:10.722Z,21.53
2019-06-26T05:42:40.188Z,21.87
2019-06-26T05:45:11.579Z,22.04
2019-06-26T05:47:40.998Z,22.52
2019-06-26T05:50:12.044Z,22.13
2019-06-26T05:52:43.053Z,21.93
2019-06-26T05:55:14.322Z,22.58
2019-06-26T05:57:44.023Z,23.33
2019-06-26T06:00:15.354Z,23.22
2019-06-26T06:02:45.232Z,23.04
2019-06-26T06:05:14.910Z,23.49
2019-06-26T06:07:44.352Z,23.23
2019-06-26T06:10:14.358Z,23.10
2019-06-26T06:12:43.820Z,22.88
2019-06-26T06:15:15.066Z,22.49
2019-06-26T06:17:44.635Z,22.69
2019-06-26T06:20:15.087Z,23.14
2019-06-26T06:22:46.078Z,22.55
2019-06-26T06:25:15.509Z,22.78
2019-06-26T06:27:46.522Z,23.09
2019-06-26T06:30:16.075Z,23.17
2019-06-26T06:32:45.493Z,23.24
2019-06-26T06:35:15.006Z,23.53
2019-06-26T06:37:44.727Z,24.31
2019-06-26T06:40:14.224Z,24.08
2019-06-26T06:42:43.613Z,24.63
2019-06-26T06:45:13.170Z,24.75
2019-06-26T06:47:42.577Z,24.21
2019-06-26T06:50:12.149Z,23.30
2019-06-26T06:52:42.396Z,23.64
2019-06-26T06:55:12.073Z,23.47
2019-06-26T06:57:41.473Z,23.91
2019-06-26T07:00:11.237Z,24.01
2019-06-26T07:02:40.638Z,24.02
2019-06-26T07:05:10.756Z,24.91
2019-06-26T07:07:40.164Z,24.57
2019-06-26T07:10:10.619Z,24.24
2019-06-26T07:12:40.136Z,24.05
2019-06-26T07:15:11.241Z,23.13
2019-06-26T07:17:40.793Z,22.65
2019-06-26T07:20:10.387Z,22.60
2019-06-26T07:22:39.837Z,22.18
2019-06-26T07:25:09.513Z,21.75
2019-06-26T07:27:39.136Z,21.33
2019-06-26T07:30:09.437Z,20.70
2019-06-26T07:32:40.437Z,20.80
2019-06-26T07:35:10.125Z,20.37
2019-06-26T07:37:39.777Z,19.99
2019-06-26T07:40:09.753Z,19.98
2019-06-26T07:42:39.189Z,20.10
2019-06-26T07:45:09.602Z,19.80
2019-06-26T07:47:43.577Z,20.07
2019-06-26T07:50:11.027Z,20.05
2019-06-26T07:52:40.649Z,20.00
2019-06-26T07:55:12.429Z,20.08
2019-06-26T07:57:42.104Z,20.02
2019-06-26T08:00:12.797Z,20.17
2019-06-26T08:02:42.396Z,19.94
2019-06-26T08:05:13.232Z,19.77
2019-06-26T08:07:42.736Z,20.13
2019-06-26T08:10:13.025Z,19.90
2019-06-26T08:12:42.473Z,19.77
2019-06-26T08:15:12.992Z,19.61
2019-06-26T08:17:59.284Z,19.34
2019-06-26T08:20:15.076Z,19.62
2019-06-26T08:22:44.481Z,19.60
2019-06-26T08:25:14.262Z,19.21
2019-06-26T08:27:43.681Z,19.18
2019-06-26T08:30:13.875Z,19.14
2019-06-26T08:32:43.335Z,19.08
2019-06-26T08:35:13.045Z,19.01
2019-06-26T08:37:42.452Z,19.22
2019-06-26T08:40:12.248Z,19.33
2019-06-26T08:42:41.724Z,19.30
2019-06-26T08:45:12.517Z,19.46
2019-06-26T08:47:41.935Z,19.44
2019-06-26T08:50:13.439Z,19.44
2019-06-26T08:52:42.855Z,19.55
2019-06-26T08:55:12.542Z,20.03
2019-06-26T08:57:42.040Z,20.04
2019-06-26T09:00:12.521Z,20.00
2019-06-26T09:02:41.989Z,19.75
2019-06-26T09:05:11.889Z,19.74
2019-06-26T09:07:41.280Z,19.61
2019-06-26T09:10:10.973Z,19.70
2019-06-26T09:12:40.364Z,19.97
2019-06-26T09:15:10.248Z,20.20
2019-06-26T09:17:39.634Z,20.15
2019-06-26T09:20:09.892Z,19.95
2019-06-26T09:22:39.295Z,20.19
2019-06-26T09:25:21.034Z,19.99
2019-06-26T09:27:40.093Z,20.10
2019-06-26T09:30:10.172Z,19.81
2019-06-26T09:32:39.676Z,19.99
2019-06-26T09:35:09.504Z,20.05
2019-06-26T09:37:38.945Z,20.23
2019-06-26T09:40:08.941Z,19.89
2019-06-26T09:42:39.314Z,19.89
2019-06-26T09:45:08.985Z,19.85
2019-06-26T09:47:38.506Z,19.93
2019-06-26T09:50:08.849Z,20.04
2019-06-26T09:52:40.594Z,19.66
2019-06-26T09:55:11.478Z,19.73
2019-06-26T09:57:40.886Z,19.34
2019-06-26T10:00:13.327Z,19.43
2019-06-26T10:02:42.878Z,19.10
2019-06-26T10:05:13.160Z,19.32
2019-06-26T10:07:42.663Z,19.80
2019-06-26T10:10:12.555Z,19.83
2019-06-26T10:12:41.950Z,19.74
2019-06-26T10:15:11.636Z,19.43
2019-06-26T10:17:41.196Z,19.28
2019-06-26T10:20:11.972Z,19.39
2019-06-26T10:22:41.979Z,19.24
2019-06-26T10:25:12.110Z,19.60
2019-06-26T10:27:41.604Z,19.58
2019-06-26T10:30:12.580Z,19.71
2019-06-26T10:32:42.019Z,19.68
2019-06-26T10:35:12.000Z,19.37
2019-06-26T10:37:41.923Z,19.41
2019-06-26T10:40:16.174Z,19.68
2019-06-26T10:42:44.569Z,19.49
2019-06-26T10:45:15.050Z,19.94
2019-06-26T10:47:45.173Z,20.38
2019-06-26T10:50:14.931Z,20.05
2019-06-26T10:52:44.390Z,20.35
2019-06-26T10:55:14.491Z,19.76
2019-06-26T10:57:43.920Z,19.84
2019-06-26T11:00:14.177Z,20.25
2019-06-26T11:02:43.841Z,20.08
2019-06-26T11:05:14.302Z,19.79
2019-06-26T11:07:43.719Z,20.76
2019-06-26T11:10:13.892Z,20.74
2019-06-26T11:12:43.361Z,20.32
2019-06-26T11:15:12.958Z,20.52
2019-06-26T11:17:42.534Z,20.74
2019-06-26T11:20:13.519Z,20.48
2019-06-26T11:22:42.959Z,20.78
2019-06-26T11:25:14.245Z,20.45
2019-06-26T11:27:43.698Z,20.71
2019-06-26T11:30:14.299Z,21.46
2019-06-26T11:32:43.841Z,21.15
2019-06-26T11:35:14.433Z,20.81
2019-06-26T11:37:43.988Z,21.05
2019-06-26T11:40:15.122Z,20.91
2019-06-26T11:42:44.552Z,21.27
2019-06-26T11:45:14.616Z,21.41
2019-06-26T11:47:45.847Z,21.02
2019-06-26T11:50:15.808Z,20.97
2019-06-26T11:52:45.217Z,21.20
2019-06-26T11:55:16.462Z,20.81
2019-06-26T11:57:46.448Z,20.87
2019-06-26T12:00:18.924Z,21.26
2019-06-26T12:02:48.633Z,20.64
2019-06-26T12:05:18.569Z,21.40
2019-06-26T12:07:48.205Z,21.31
2019-06-26T12:10:18.277Z,21.48
2019-06-26T12:12:48.022Z,21.95
2019-06-26T12:15:19.872Z,21.73
2019-06-26T12:17:49.352Z,22.53
2019-06-26T12:20:20.145Z,22.11
2019-06-26T12:22:49.599Z,22.08
2019-06-26T12:25:19.169Z,21.85
2019-06-26T12:27:48.613Z,22.48
2019-06-26T12:30:18.598Z,22.47
2019-06-26T12:33:02.435Z,22.81
2019-06-26T12:35:19.091Z,22.33
2019-06-26T12:37:48.524Z,22.13
2019-06-26T12:40:18.006Z,22.46
2019-06-26T12:42:47.458Z,21.54
2019-06-26T12:45:17.236Z,22.81
2019-06-26T12:47:46.707Z,22.49
2019-06-26T12:50:34.179Z,23.20
2019-06-26T12:52:50.274Z,22.84
2019-06-26T12:55:19.750Z,23.97
2019-06-26T12:57:49.171Z,22.92
2019-06-26T13:00:19.002Z,22.43
2019-06-26T13:02:48.435Z,23.26
2019-06-26T13:05:18.006Z,23.28
2019-06-26T13:07:47.446Z,23.71
2019-06-26T13:10:18.873Z,23.68
2019-06-26T13:12:48.395Z,23.00
2019-06-26T13:15:18.330Z,23.87
2019-06-26T13:17:47.833Z,22.97
2019-06-26T13:20:17.514Z,22.13
2019-06-26T13:22:47.007Z,21.58
2019-06-26T13:25:17.265Z,22.35
2019-06-26T13:27:46.782Z,22.45
2019-06-26T13:30:19.241Z,23.29
2019-06-26T13:32:48.858Z,24.05
2019-06-26T13:35:18.300Z,23.83
2019-06-26T13:37:47.716Z,22.42
2019-06-26T13:40:17.393Z,21.88
2019-06-26T13:42:46.781Z,21.57
2019-06-26T13:45:17.088Z,21.57
2019-06-26T13:47:46.532Z,21.36
2019-06-26T13:50:16.625Z,20.98
2019-06-26T13:52:46.019Z,21.74
2019-06-26T13:55:15.616Z,21.78
2019-06-26T13:57:45.023Z,21.88
2019-06-26T14:00:15.182Z,22.21
2019-06-26T14:02:44.677Z,21.98
2019-06-26T14:05:15.446Z,21.61
2019-06-26T14:07:44.961Z,21.53
2019-06-26T14:10:14.731Z,21.96
2019-06-26T14:12:44.515Z,21.19
2019-06-26T14:15:15.560Z,20.79
2019-06-26T14:17:44.977Z,20.38
2019-06-26T14:20:16.025Z,20.19
2019-06-26T14:22:45.506Z,20.38
2019-06-26T14:25:15.074Z,20.85
2019-06-26T14:27:44.509Z,20.04
2019-06-26T14:30:15.191Z,21.07
2019-06-26T14:32:44.688Z,22.41
2019-06-26T14:35:14.562Z,22.68
2019-06-26T14:37:44.098Z,23.01
2019-06-26T14:40:14.990Z,21.42
2019-06-26T14:42:44.382Z,20.78
2019-06-26T14:45:14.248Z,20.70
2019-06-26T14:47:43.677Z,20.46
2019-06-26T14:50:13.722Z,20.33
2019-06-26T14:52:45.934Z,20.64
2019-06-26T14:55:15.389Z,21.05
2019-06-26T14:57:44.963Z,22.09
2019-06-26T15:00:14.748Z,22.17
2019-06-26T15:02:44.144Z,21.13
2019-06-26T15:05:13.867Z,20.33
2019-06-26T15:07:43.225Z,20.44
2019-06-26T15:10:13.883Z,20.23
2019-06-26T15:12:43.291Z,19.93
2019-06-26T15:15:13.856Z,20.00
2019-06-26T15:17:43.262Z,20.24
2019-06-26T15:20:13.122Z,20.12
2019-06-26T15:22:42.528Z,19.88
2019-06-26T15:25:13.838Z,20.01
2019-06-26T15:27:43.240Z,19.95
2019-06-26T15:30:13.044Z,19.86
2019-06-26T15:32:42.449Z,19.76
2019-06-26T15:35:12.119Z,19.87
2019-06-26T15:37:44.661Z,20.05
2019-06-26T15:40:14.001Z,19.74
2019-06-26T15:42:43.449Z,19.40
2019-06-26T15:45:13.131Z,19.30
2019-06-26T15:47:42.566Z,19.04
2019-06-26T15:50:12.311Z,19.35
2019-06-26T15:52:41.776Z,19.23
2019-06-26T15:55:12.032Z,19.39
2019-06-26T15:57:41.478Z,19.10
2019-06-26T16:00:11.429Z,18.83
2019-06-26T16:02:40.850Z,19.13
2019-06-26T16:05:10.515Z,18.98
2019-06-26T16:07:40.011Z,19.02
2019-06-26T16:10:10.108Z,19.13
2019-06-26T16:12:39.613Z,19.15
2019-06-26T16:15:09.837Z,19.31
2019-06-26T16:17:53.152Z,18.57
2019-06-26T16:20:22.593Z,18.67
2019-06-26T16:22:52.637Z,18.67
2019-06-26T16:25:22.127Z,18.97
2019-06-26T16:28:04.656Z,18.74
2019-06-26T16:30:22.787Z,18.71
2019-06-26T16:32:52.233Z,18.80
2019-06-26T16:35:21.747Z,18.95
2019-06-26T16:37:51.190Z,18.70
2019-06-26T16:40:20.617Z,18.59
2019-06-26T16:42:50.065Z,18.26
2019-06-26T16:45:20.177Z,18.32
2019-06-26T16:47:49.693Z,18.30
2019-06-26T16:50:19.426Z,18.36
2019-06-26T16:52:50.116Z,18.32
2019-06-26T16:55:20.115Z,17.85
2019-06-26T16:57:49.537Z,18.11
2019-06-26T17:00:20.283Z,18.07
2019-06-26T17:02:49.744Z,18.09
2019-06-26T17:05:20.979Z,18.15
2019-06-26T17:07:50.443Z,17.82
2019-06-26T17:10:20.604Z,17.99
2019-06-26T17:12:50.059Z,17.93
2019-06-26T17:15:19.743Z,17.93
2019-06-26T17:17:49.243Z,17.77
2019-06-26T17:20:19.130Z,17.77
2019-06-26T17:23:01.110Z,17.93
2019-06-26T17:25:19.878Z,17.79
2019-06-26T17:27:49.305Z,17.80
2019-06-26T17:30:18.882Z,17.80
2019-06-26T17:32:48.295Z,17.62
2019-06-26T17:35:17.880Z,17.74
2019-06-26T17:37:47.298Z,17.65
2019-06-26T17:40:17.058Z,17.72
2019-06-26T17:42:48.162Z,17.69
2019-06-26T17:45:18.311Z,17.46
2019-06-26T17:47:47.822Z,17.68
2019-06-26T17:50:17.599Z,17.66
2019-06-26T17:52:47.414Z,17.52
2019-06-26T17:55:17.255Z,17.33
2019-06-26T17:57:47.690Z,17.32
2019-06-26T18:00:20.373Z,17.35
2019-06-26T18:02:49.812Z,17.20
2019-06-26T18:05:19.265Z,17.25
2019-06-26T18:07:48.792Z,17.23
2019-06-26T18:10:18.331Z,17.09
2019-06-26T18:12:47.799Z,17.11
2019-06-26T18:15:17.461Z,17.11
2019-06-26T18:17:46.889Z,17.12
2019-06-26T18:20:16.399Z,17.08
2019-06-26T18:22:45.842Z,16.98
2019-06-26T18:25:16.651Z,16.93
2019-06-26T18:27:46.324Z,16.88
2019-06-26T18:30:16.204Z,16.77
2019-06-26T18:32:45.647Z,16.87
2019-06-26T18:35:18.437Z,16.78
2019-06-26T18:37:47.866Z,16.76
2019-06-26T18:40:17.599Z,16.76
2019-06-26T18:42:47.004Z,16.72
2019-06-26T18:45:16.986Z,16.59
2019-06-26T18:47:46.497Z,16.62
2019-06-26T18:50:16.060Z,16.49
2019-06-26T18:52:45.427Z,16.49
2019-06-26T18:55:14.934Z,16.56
2019-06-26T18:57:45.784Z,16.61
2019-06-26T19:00:16.684Z,16.44
2019-06-26T19:02:46.143Z,16.39
2019-06-26T19:05:15.923Z,16.29
2019-06-26T19:07:45.329Z,16.25
2019-06-26T19:10:15.036Z,16.19
2019-06-26T19:12:44.417Z,16.30
2019-06-26T19:15:14.957Z,16.19
2019-06-26T19:17:44.402Z,16.17
2019-06-26T19:20:14.337Z,16.29
2019-06-26T19:22:47.440Z,16.24
2019-06-26T19:25:15.889Z,16.06
2019-06-26T19:27:45.315Z,16.11
2019-06-26T19:30:15.262Z,16.10
2019-06-26T19:32:44.758Z,16.15
2019-06-26T19:35:21.618Z,16.21
2019-06-26T19:37:45.539Z,16.17
2019-06-26T19:40:16.478Z,16.10
2019-06-26T19:42:45.923Z,16.01
2019-06-26T19:45:15.855Z,15.99
2019-06-26T19:47:45.328Z,16.06
2019-06-26T19:50:14.854Z,15.93
2019-06-26T19:52:44.305Z,15.92
2019-06-26T19:55:14.036Z,15.98
2019-06-26T19:57:43.489Z,16.02
2019-06-26T20:00:13.426Z,15.89
2019-06-26T20:02:42.866Z,15.93
2019-06-26T20:05:12.406Z,15.80
2019-06-26T20:07:41.875Z,15.85
2019-06-26T20:10:13.114Z,15.69
2019-06-26T20:12:42.712Z,15.63
2019-06-26T20:15:12.176Z,15.63
2019-06-26T20:17:41.688Z,15.77
2019-06-26T20:20:11.168Z,15.75
2019-06-26T20:22:40.625Z,15.76
2019-06-26T20:25:10.661Z,15.80
2019-06-26T20:27:40.139Z,15.78
2019-06-26T20:30:10.342Z,15.67
2019-06-26T20:32:39.840Z,15.62
2019-06-26T20:35:10.984Z,15.58
2019-06-26T20:37:40.401Z,15.55
2019-06-26T20:40:12.429Z,15.47
2019-06-26T20:42:41.827Z,15.43
2019-06-26T20:45:13.163Z,15.40
2019-06-26T20:47:42.575Z,15.43
2019-06-26T20:50:12.761Z,15.34
2019-06-26T20:52:42.163Z,15.37
2019-06-26T20:55:12.132Z,15.37
2019-06-26T20:57:41.530Z,15.36
2019-06-26T21:00:11.618Z,15.35
2019-06-26T21:02:41.021Z,15.40
2019-06-26T21:05:10.534Z,15.35
2019-06-26T21:07:39.933Z,15.27
2019-06-26T21:10:09.799Z,15.23
2019-06-26T21:12:39.268Z,15.28
2019-06-26T21:15:09.348Z,15.13
2019-06-26T21:17:38.821Z,15.04
2019-06-26T21:20:08.429Z,14.95
2019-06-26T21:22:37.824Z,14.90
2019-06-26T21:25:18.492Z,14.98
2019-06-26T21:27:39.497Z,15.02
2019-06-26T21:30:09.581Z,15.09
2019-06-26T21:32:39.031Z,15.10
2019-06-26T21:35:08.556Z,15.16
2019-06-26T21:37:37.975Z,15.13
2019-06-26T21:40:07.732Z,15.15
2019-06-26T21:42:37.125Z,15.03
2019-06-26T21:45:07.308Z,15.07
2019-06-26T21:47:36.709Z,14.90
2019-06-26T21:50:07.735Z,14.90
2019-06-26T21:52:37.139Z,14.96
2019-06-26T21:55:08.462Z,14.93
2019-06-26T21:57:37.843Z,14.92
2019-06-26T22:00:09.211Z,14.94
2019-06-26T22:02:38.780Z,14.97
2019-06-26T22:05:09.311Z,15.17
2019-06-26T22:07:39.298Z,15.12
2019-06-26T22:10:08.930Z,15.05
2019-06-26T22:12:38.596Z,14.93
2019-06-26T22:15:08.211Z,14.89
2019-06-26T22:17:37.627Z,14.76
2019-06-26T22:20:12.303Z,14.68
2019-06-26T22:22:39.735Z,14.46
2019-06-26T22:25:09.682Z,14.36
2019-06-26T22:27:39.665Z,14.34
2019-06-26T22:30:09.906Z,14.46
2019-06-26T22:32:39.808Z,14.43
2019-06-26T22:35:09.761Z,14.46
2019-06-26T22:37:39.195Z,14.49
2019-06-26T22:40:08.950Z,14.49
2019-06-26T22:42:38.455Z,14.43
2019-06-26T22:45:07.974Z,14.36
2019-06-26T22:47:37.440Z,14.38
2019-06-26T22:50:08.916Z,14.39
2019-06-26T22:52:38.488Z,14.49
2019-06-26T22:55:08.267Z,14.49
2019-06-26T22:57:37.719Z,14.52
2019-06-26T23:00:12.875Z,14.49
2019-06-26T23:02:43.900Z,14.50
2019-06-26T23:05:13.504Z,14.32
2019-06-26T23:07:42.945Z,14.30
2019-06-26T23:10:12.743Z,14.35
2019-06-26T23:12:42.196Z,14.34
2019-06-26T23:15:12.173Z,14.38
2019-06-26T23:17:41.596Z,14.39
2019-06-26T23:20:11.102Z,14.35
2019-06-26T23:22:40.546Z,14.28
2019-06-26T23:25:10.317Z,14.23
2019-06-26T23:27:39.759Z,14.24
2019-06-26T23:30:15.031Z,14.29
2019-06-26T23:32:44.475Z,14.40
2019-06-26T23:35:14.246Z,14.38
2019-06-26T23:37:43.836Z,14.38
2019-06-26T23:40:13.613Z,14.38
2019-06-26T23:42:43.103Z,14.35
2019-06-26T23:45:12.686Z,14.31
2019-06-26T23:47:42.081Z,14.25
2019-06-26T23:50:11.671Z,14.16
2019-06-26T23:52:41.057Z,14.12
2019-06-26T23:55:10.636Z,14.13
2019-06-26T23:57:57.671Z,14.15
